Time;durP1;ratioP1;P1;durP2;ratioP2;P2;SDS_P1;SDS_P2;PMS_P1;PMS_P2;Temp;Humidity;BMP_temperature;BMP_pressure;BME280_temperature;BME280_humidity;BME280_pressure;Samples;Min_cycle;Max_cycle;Signal;HPM_P1;HPM_P2
2023/07/21 00:02:25;;;;;;;6.70;6.05;;;18.10;99.90;;;;;;5085226;28;20103;-70
2023/07/21 00:04:50;;;;;;;6.78;6.13;;;18.20;99.90;;;;;;5092110;28;20028;-71
2023/07/21 00:07:16;;;;;;;7.88;6.05;;;18.20;99.90;;;;;;5092323;28;20036;-71
2023/07/21 00:09:43;;;;;;;7.00;6.30;;;18.20;99.90;;;;;;5092232;28;20050;-70
2023/07/21 00:12:09;;;;;;;7.10;6.40;;;18.10;99.90;;;;;;5092251;28;20021;-71
2023/07/21 00:14:35;;;;;;;7.00;5.82;;;18.10;99.90;;;;;;5092212;28;20388;-70
2023/07/21 00:17:04;;;;;;;9.60;6.50;;;18.10;99.90;;;;;;5091861;28;20483;-70
2023/07/21 00:19:30;;;;;;;6.55;5.97;;;18.10;99.90;;;;;;5094662;28;20490;-71
2023/07/21 00:21:56;;;;;;;7.05;6.45;;;18.10;99.90;;;;;;5096195;28;20016;-71
2023/07/21 00:24:22;;;;;;;6.65;6.05;;;18.10;99.90;;;;;;5096242;28;20492;-71
2023/07/21 00:26:47;;;;;;;7.13;6.45;;;18.00;99.90;;;;;;5094588;28;20039;-71
2023/07/21 00:29:13;;;;;;;7.28;6.57;;;18.10;99.90;;;;;;5096100;28;20064;-70
2023/07/21 00:31:39;;;;;;;7.32;6.70;;;18.00;99.90;;;;;;5095965;28;20473;-71
2023/07/21 00:34:05;;;;;;;7.47;6.88;;;18.00;99.90;;;;;;5095836;28;20060;-70
2023/07/21 00:36:31;;;;;;;6.10;5.60;;;18.00;99.90;;;;;;5094813;28;20032;-70
2023/07/21 00:38:58;;;;;;;6.85;6.18;;;18.00;99.90;;;;;;5095929;28;20437;-71
2023/07/21 00:41:25;;;;;;;7.07;6.47;;;18.00;99.90;;;;;;5095967;28;20434;-70
2023/07/21 00:43:51;;;;;;;5.57;5.07;;;18.00;99.90;;;;;;5096436;28;20051;-70
2023/07/21 00:46:17;;;;;;;7.43;6.20;;;17.90;99.90;;;;;;5095505;28;20137;-71
2023/07/21 00:48:43;;;;;;;6.20;5.70;;;17.80;99.90;;;;;;5095943;28;20072;-70
2023/07/21 00:51:10;;;;;;;7.38;6.78;;;17.90;99.90;;;;;;5095678;28;20434;-70
2023/07/21 00:53:36;;;;;;;7.80;7.10;;;17.80;99.90;;;;;;5095301;28;20031;-70
2023/07/21 00:56:02;;;;;;;8.95;7.65;;;17.80;99.90;;;;;;5095477;28;20392;-71
2023/07/21 00:58:30;;;;;;;8.80;8.00;;;17.80;99.90;;;;;;5095636;28;20028;-70
2023/07/21 01:00:55;;;;;;;11.32;7.15;;;17.80;99.90;;;;;;5094985;28;20028;-71
2023/07/21 01:03:22;;;;;;;6.82;6.32;;;17.80;99.90;;;;;;5095276;28;20020;-70
2023/07/21 01:05:53;;;;;;;7.15;6.55;;;17.80;99.90;;;;;;5095395;28;20055;-71
2023/07/21 01:08:20;;;;;;;;;;;17.80;99.90;;;;;;5095356;28;20105;-70
2023/07/21 01:10:47;;;;;;;7.50;6.80;;;17.80;99.90;;;;;;5093800;28;20364;-70
2023/07/21 01:13:13;;;;;;;7.20;6.50;;;17.80;99.90;;;;;;5094956;28;20024;-70
2023/07/21 01:15:53;;;;;;;8.02;7.25;;;17.80;99.90;;;;;;5093640;28;20028;-70
2023/07/21 01:18:20;;;;;;;8.82;7.97;;;17.80;99.90;;;;;;5095321;28;20025;-70
2023/07/21 01:20:47;;;;;;;10.27;9.40;;;17.70;99.90;;;;;;5094852;28;20020;-70
2023/07/21 01:23:38;;;;;;;9.65;8.75;;;17.70;99.90;;;;;;5094746;28;20114;-70
2023/07/21 01:26:05;;;;;;;10.80;9.75;;;17.70;99.90;;;;;;5095103;28;20027;-70
2023/07/21 01:28:32;;;;;;;10.07;9.07;;;17.60;99.90;;;;;;5094611;28;20036;-70
2023/07/21 01:31:00;;;;;;;10.60;9.57;;;17.60;99.90;;;;;;5094122;28;20020;-70
2023/07/21 01:33:27;;;;;;;14.10;10.55;;;17.50;99.90;;;;;;5094892;28;20391;-70
2023/07/21 01:35:54;;;;;;;10.48;9.48;;;17.50;99.90;;;;;;5095221;28;20128;-70
2023/07/21 01:38:22;;;;;;;12.63;11.50;;;17.50;99.90;;;;;;5095220;28;20049;-70
2023/07/21 01:40:49;;;;;;;11.77;10.77;;;17.50;99.90;;;;;;5094838;28;20047;-70
2023/07/21 01:43:15;;;;;;;12.48;10.20;;;17.50;99.90;;;;;;5094395;28;20024;-70
2023/07/21 01:45:41;;;;;;;9.70;8.02;;;17.50;99.90;;;;;;5094563;28;20230;-70
2023/07/21 01:48:07;;;;;;;11.80;8.73;;;17.50;99.90;;;;;;5094679;28;20059;-70
2023/07/21 01:50:34;;;;;;;12.05;10.85;;;17.50;99.90;;;;;;5094769;28;20473;-70
2023/07/21 01:53:06;;;;;;;11.95;10.43;;;17.50;99.90;;;;;;5094302;28;20012;-70
2023/07/21 01:55:43;;;;;;;11.68;10.57;;;17.40;99.90;;;;;;5094478;28;20040;-70
2023/07/21 01:58:10;;;;;;;12.32;11.23;;;17.40;99.90;;;;;;5094056;28;20085;-70
2023/07/21 02:00:41;;;;;;;11.40;10.15;;;17.40;99.90;;;;;;5094296;28;20032;-70
2023/07/21 02:03:08;;;;;;;12.25;10.93;;;17.40;99.90;;;;;;5093990;28;20027;-70
2023/07/21 02:05:34;;;;;;;12.70;11.63;;;17.40;99.90;;;;;;5094174;28;20028;-70
2023/07/21 02:07:59;;;;;;;12.32;11.15;;;17.30;99.90;;;;;;5094298;28;20031;-70
2023/07/21 02:10:25;;;;;;;12.90;11.60;;;17.30;99.90;;;;;;5094023;28;20024;-70
2023/07/21 02:12:51;;;;;;;13.13;11.95;;;17.30;99.90;;;;;;5093778;28;20035;-70
2023/07/21 02:15:17;;;;;;;14.68;12.23;;;17.30;99.90;;;;;;5093865;28;20035;-70
2023/07/21 02:17:43;;;;;;;13.18;11.95;;;17.20;99.90;;;;;;5093917;28;20018;-70
2023/07/21 02:20:09;;;;;;;13.77;12.43;;;17.30;99.90;;;;;;5094291;28;20466;-70
2023/07/21 02:22:40;;;;;;;12.57;11.48;;;17.20;99.90;;;;;;5093603;28;20107;-70
2023/07/21 02:25:09;;;;;;;11.55;10.35;;;17.20;99.90;;;;;;5094042;28;20099;-70
2023/07/21 02:27:35;;;;;;;13.02;11.88;;;17.20;99.90;;;;;;5093705;28;20078;-70
2023/07/21 02:30:01;;;;;;;15.32;13.80;;;17.10;99.90;;;;;;5094016;28;20396;-70
2023/07/21 02:32:30;;;;;;;15.32;13.93;;;17.10;99.90;;;;;;5093649;28;20020;-70
2023/07/21 02:34:58;;;;;;;15.15;13.55;;;17.10;99.90;;;;;;5093681;28;20063;-70
2023/07/21 02:37:25;;;;;;;14.52;13.05;;;17.10;99.90;;;;;;5093596;28;20099;-70
2023/07/21 02:39:51;;;;;;;15.43;13.85;;;17.10;99.90;;;;;;5093487;28;20077;-70
2023/07/21 02:42:17;;;;;;;13.93;12.63;;;17.10;99.90;;;;;;5092055;28;20028;-70
2023/07/21 02:44:44;;;;;;;10.70;9.70;;;16.90;99.90;;;;;;5093650;28;20077;-70
2023/07/21 02:47:13;;;;;;;12.27;11.07;;;16.80;99.90;;;;;;5093553;28;20020;-70
2023/07/21 02:49:40;;;;;;;12.52;11.32;;;16.90;99.90;;;;;;5093412;28;20032;-70
2023/07/21 02:52:06;;;;;;;12.13;10.82;;;16.90;99.90;;;;;;5093217;28;20039;-70
2023/07/21 02:54:32;;;;;;;12.10;11.00;;;16.90;99.90;;;;;;5093104;28;20044;-70
2023/07/21 02:56:58;;;;;;;12.02;10.93;;;16.90;99.90;;;;;;5092951;28;20028;-70
2023/07/21 02:59:26;;;;;;;12.80;11.60;;;16.80;99.90;;;;;;5093126;28;20491;-70
2023/07/21 03:01:56;;;;;;;13.00;11.70;;;16.80;99.90;;;;;;5093056;28;20418;-70
2023/07/21 03:04:24;;;;;;;13.45;12.15;;;16.80;99.90;;;;;;5093143;28;20486;-70
2023/07/21 03:06:50;;;;;;;15.73;14.10;;;16.70;99.90;;;;;;5092992;28;20024;-70
2023/07/21 03:09:16;;;;;;;17.95;16.15;;;16.70;99.90;;;;;;5092850;28;20027;-69
2023/07/21 03:11:41;;;;;;;16.30;14.70;;;16.70;99.90;;;;;;5092653;28;20032;-70
2023/07/21 03:14:09;;;;;;;15.25;13.65;;;16.70;99.90;;;;;;5093051;28;20034;-70
2023/07/21 03:16:36;;;;;;;18.77;14.85;;;16.70;99.90;;;;;;5092985;28;20028;-70
2023/07/21 03:19:02;;;;;;;16.58;14.88;;;16.70;99.90;;;;;;5092799;28;20017;-70
2023/07/21 03:21:28;;;;;;;15.85;14.02;;;16.70;99.90;;;;;;5092320;28;20028;-70
2023/07/21 03:23:53;;;;;;;16.70;14.93;;;16.70;99.90;;;;;;5092357;28;20031;-71
2023/07/21 03:26:20;;;;;;;15.88;14.30;;;16.70;99.90;;;;;;5092536;28;20032;-70
2023/07/21 03:28:46;;;;;;;17.17;15.52;;;16.70;99.90;;;;;;5092840;28;20024;-69
2023/07/21 03:31:12;;;;;;;17.58;15.60;;;16.60;99.90;;;;;;5092803;28;20476;-70
2023/07/21 03:33:37;;;;;;;18.77;16.88;;;16.60;99.90;;;;;;5092702;28;20024;-70
2023/07/21 03:36:04;;;;;;;17.52;15.82;;;16.60;99.90;;;;;;5092707;28;20020;-70
2023/07/21 03:38:35;;;;;;;18.85;16.85;;;16.60;99.90;;;;;;5092308;28;20479;-70
2023/07/21 03:41:06;;;;;;;16.60;14.90;;;16.60;99.90;;;;;;5092540;28;20166;-69
2023/07/21 03:43:32;;;;;;;16.60;14.98;;;16.50;99.90;;;;;;5085730;28;20039;-70
2023/07/21 03:46:02;;;;;;;17.67;15.77;;;16.50;99.90;;;;;;5072572;28;20024;-69
2023/07/21 03:48:29;;;;;;;17.88;16.15;;;16.50;99.90;;;;;;5072270;28;20445;-69
2023/07/21 03:50:59;;;;;;;18.20;15.95;;;16.50;99.90;;;;;;5072255;28;20107;-69
2023/07/21 03:53:26;;;;;;;17.88;16.05;;;16.50;99.90;;;;;;5071565;28;20027;-69
2023/07/21 03:55:52;;;;;;;13.65;12.35;;;16.50;99.90;;;;;;5071964;28;20035;-70
2023/07/21 03:58:17;;;;;;;16.08;14.43;;;16.50;99.90;;;;;;5072079;28;20040;-69
2023/07/21 04:00:43;;;;;;;14.20;12.77;;;16.40;99.90;;;;;;5072249;28;20108;-69
2023/07/21 04:03:09;;;;;;;13.48;12.13;;;16.40;99.90;;;;;;5091465;28;20028;-69
2023/07/21 04:05:35;;;;;;;16.17;14.50;;;16.40;99.90;;;;;;5090529;28;20023;-69
2023/07/21 04:08:01;;;;;;;15.70;14.20;;;16.40;99.90;;;;;;5090985;28;20035;-69
2023/07/21 04:10:27;;;;;;;14.05;12.73;;;16.40;99.90;;;;;;5092021;28;20103;-69
2023/07/21 04:12:53;;;;;;;15.38;13.75;;;16.30;99.90;;;;;;5092369;28;20167;-69
2023/07/21 04:15:18;;;;;;;15.82;14.18;;;16.30;99.90;;;;;;5092513;28;20376;-69
2023/07/21 04:17:44;;;;;;;15.73;14.25;;;16.30;99.90;;;;;;5092121;28;20032;-70
2023/07/21 04:20:11;;;;;;;16.00;14.50;;;16.30;99.90;;;;;;5092050;28;20118;-69
2023/07/21 04:22:36;;;;;;;15.15;13.63;;;16.20;99.90;;;;;;5091618;28;20024;-69
2023/07/21 04:25:02;;;;;;;14.77;13.30;;;16.20;99.90;;;;;;5092109;28;20537;-69
2023/07/21 04:27:31;;;;;;;15.70;13.98;;;16.20;99.90;;;;;;5092574;28;20035;-68
2023/07/21 04:29:58;;;;;;;15.10;13.52;;;16.20;99.90;;;;;;5092179;28;20035;-69
2023/07/21 04:32:24;;;;;;;15.90;14.07;;;16.20;99.90;;;;;;5091986;28;20012;-68
2023/07/21 04:34:49;;;;;;;17.67;14.98;;;16.20;99.90;;;;;;5091984;28;20032;-69
2023/07/21 04:37:15;;;;;;;16.13;14.48;;;16.20;99.90;;;;;;5091776;28;20447;-69
2023/07/21 04:39:41;;;;;;;15.80;14.18;;;16.20;99.90;;;;;;5092144;28;20086;-69
2023/07/21 04:42:08;;;;;;;18.02;16.13;;;16.20;99.90;;;;;;5089755;28;20461;-69
2023/07/21 04:44:34;;;;;;;17.90;16.00;;;16.20;99.90;;;;;;5083083;28;20112;-69
2023/07/21 04:46:59;;;;;;;16.25;14.55;;;16.20;99.90;;;;;;5071840;28;20091;-69
2023/07/21 04:49:25;;;;;;;16.33;13.40;;;16.20;99.90;;;;;;5071636;28;20033;-69
2023/07/21 04:51:51;;;;;;;14.57;13.10;;;16.20;99.90;;;;;;5071265;28;20577;-70
2023/07/21 04:54:16;;;;;;;13.55;11.98;;;16.20;99.90;;;;;;5071686;28;20028;-69
2023/07/21 04:56:43;;;;;;;14.00;12.60;;;16.20;99.90;;;;;;5071273;28;20099;-69
2023/07/21 04:59:09;;;;;;;15.93;14.35;;;16.20;99.90;;;;;;5071630;28;20190;-69
2023/07/21 05:01:35;;;;;;;14.88;13.35;;;16.20;99.90;;;;;;5077999;28;20095;-68
2023/07/21 05:04:01;;;;;;;14.90;13.35;;;16.30;99.90;;;;;;5092012;28;20032;-69
2023/07/21 05:06:27;;;;;;;14.13;12.65;;;16.20;99.90;;;;;;5093455;28;20063;-69
2023/07/21 05:08:52;;;;;;;14.07;12.70;;;16.20;99.90;;;;;;5095420;28;20054;-69
2023/07/21 05:11:18;;;;;;;16.50;14.93;;;16.20;99.90;;;;;;5094711;28;20508;-69
2023/07/21 05:13:48;;;;;;;14.65;13.15;;;16.30;99.90;;;;;;5094933;28;20016;-69
2023/07/21 05:16:14;;;;;;;15.10;13.18;;;16.30;99.90;;;;;;5087360;28;20056;-69
2023/07/21 05:18:40;;;;;;;12.93;11.75;;;16.30;99.90;;;;;;5083462;28;20055;-69
2023/07/21 05:21:06;;;;;;;12.43;11.13;;;16.30;99.90;;;;;;5074713;28;20478;-69
2023/07/21 05:23:32;;;;;;;13.82;12.48;;;16.30;99.90;;;;;;5074365;28;20108;-69
2023/07/21 05:26:02;;;;;;;13.30;12.00;;;16.40;99.90;;;;;;5074725;28;20081;-69
2023/07/21 05:28:29;;;;;;;13.95;11.95;;;16.40;99.90;;;;;;5074917;28;20103;-69
2023/07/21 05:30:55;;;;;;;14.32;12.93;;;16.40;99.90;;;;;;5074636;28;20031;-69
2023/07/21 05:33:21;;;;;;;14.40;12.90;;;16.40;99.90;;;;;;5074884;28;20108;-69
2023/07/21 05:35:47;;;;;;;14.75;13.10;;;16.50;99.90;;;;;;5074191;28;20206;-69
2023/07/21 05:38:13;;;;;;;14.75;12.73;;;16.50;99.90;;;;;;5074596;28;20024;-69
2023/07/21 05:40:41;;;;;;;13.98;12.57;;;16.50;99.90;;;;;;5074597;28;20025;-69
2023/07/21 05:43:07;;;;;;;14.35;12.95;;;16.50;99.90;;;;;;5074600;28;20372;-69
2023/07/21 05:45:36;;;;;;;13.77;12.35;;;16.60;99.90;;;;;;5074424;28;20029;-69
2023/07/21 05:48:01;;;;;;;15.75;14.15;;;16.70;99.90;;;;;;5074498;28;20025;-69
2023/07/21 05:50:27;;;;;;;16.20;14.48;;;16.70;99.90;;;;;;5074139;28;20166;-69
2023/07/21 05:52:53;;;;;;;15.50;12.38;;;16.80;99.90;;;;;;5073890;28;20016;-69
2023/07/21 05:55:19;;;;;;;13.40;12.10;;;16.80;99.90;;;;;;5074541;28;20477;-69
2023/07/21 05:57:45;;;;;;;13.43;12.02;;;16.80;99.90;;;;;;5074034;28;20025;-69
2023/07/21 06:00:15;;;;;;;13.52;10.93;;;16.90;99.90;;;;;;5074209;28;20075;-69
2023/07/21 06:02:41;;;;;;;15.00;11.05;;;17.00;99.90;;;;;;5089787;28;20073;-69
2023/07/21 06:12:43;;;;;;;15.38;13.82;;;17.10;99.90;;;;;;5186095;22;20049;-75
2023/07/21 06:15:09;;;;;;;22.17;19.27;;;17.10;99.90;;;;;;5057509;28;20039;-74
2023/07/21 06:17:34;;;;;;;24.65;19.45;;;17.20;99.90;;;;;;5059608;28;20021;-73
2023/07/21 06:20:00;;;;;;;25.90;20.33;;;17.30;99.90;;;;;;5070505;28;20035;-75
2023/07/21 06:22:26;;;;;;;29.45;23.88;;;17.30;99.90;;;;;;5065745;28;20028;-74
2023/07/21 06:24:52;;;;;;;21.80;19.08;;;17.40;99.90;;;;;;5057936;28;20465;-73
2023/07/21 06:27:18;;;;;;;24.00;20.02;;;17.40;99.90;;;;;;5053208;28;20032;-74
2023/07/21 06:29:44;;;;;;;24.77;22.15;;;17.50;99.90;;;;;;5052349;28;20025;-74
2023/07/21 06:32:09;;;;;;;26.75;22.65;;;17.60;99.90;;;;;;5053471;28;20021;-74
2023/07/21 06:34:36;;;;;;;26.88;22.00;;;17.60;99.90;;;;;;5053903;28;20120;-73
2023/07/21 06:37:02;;;;;;;27.00;20.75;;;17.70;99.90;;;;;;5053500;28;20021;-73
2023/07/21 06:39:28;;;;;;;26.23;19.70;;;17.80;99.90;;;;;;5053255;28;20381;-73
2023/07/21 06:41:53;;;;;;;24.52;20.73;;;17.90;99.90;;;;;;5051585;28;20028;-74
2023/07/21 06:44:20;;;;;;;21.50;18.38;;;17.90;99.90;;;;;;5058061;28;20392;-75
2023/07/21 06:46:47;;;;;;;22.60;17.92;;;18.10;99.90;;;;;;5070017;28;20459;-75
2023/07/21 06:49:15;;;;;;;22.02;18.50;;;18.10;99.90;;;;;;5073036;28;20389;-74
2023/07/21 06:51:42;;;;;;;18.85;16.83;;;18.20;99.90;;;;;;5072460;28;20020;-73
2023/07/21 06:54:08;;;;;;;19.27;15.43;;;18.30;99.90;;;;;;5071715;28;20495;-75
2023/07/21 06:56:34;;;;;;;18.35;16.40;;;18.40;99.90;;;;;;5065746;28;20028;-75
2023/07/21 06:59:00;;;;;;;16.63;14.90;;;18.40;99.90;;;;;;5058448;28;20492;-75
2023/07/21 07:01:26;;;;;;;18.27;16.40;;;18.50;99.90;;;;;;5058280;28;20028;-76
2023/07/21 07:03:52;;;;;;;16.55;14.75;;;18.60;99.90;;;;;;5071555;28;20043;-76
2023/07/21 07:06:18;;;;;;;18.15;16.10;;;18.70;99.90;;;;;;5072193;28;20024;-75
2023/07/21 07:08:43;;;;;;;15.75;14.05;;;18.70;99.90;;;;;;5071494;28;20415;-76
2023/07/21 07:11:09;;;;;;;18.25;14.27;;;18.90;99.90;;;;;;5065182;28;20567;-76
2023/07/21 07:13:35;;;;;;;12.45;11.25;;;19.00;99.90;;;;;;5047895;28;20439;-78
2023/07/21 07:16:00;;;;;;;14.38;12.98;;;19.00;99.90;;;;;;5052606;28;20112;-77
2023/07/21 07:18:26;;;;;;;12.57;11.38;;;18.90;99.90;;;;;;5052459;28;20021;-79
2023/07/21 07:20:53;;;;;;;12.93;11.52;;;19.00;99.90;;;;;;5052350;28;20060;-80
2023/07/21 07:23:20;;;;;;;14.73;11.55;;;19.10;99.90;;;;;;5052419;28;20426;-79
2023/07/21 07:25:50;;;;;;;14.90;11.20;;;19.10;99.90;;;;;;5051630;28;20056;-79
2023/07/21 07:28:17;;;;;;;10.63;9.57;;;19.10;99.90;;;;;;5048406;28;20032;-79
2023/07/21 07:30:44;;;;;;;10.30;7.88;;;19.10;99.90;;;;;;5052341;28;20036;-80
2023/07/21 07:33:10;;;;;;;12.13;10.80;;;19.10;99.90;;;;;;5052500;28;20028;-77
2023/07/21 07:35:35;;;;;;;13.95;10.18;;;19.10;99.90;;;;;;5051750;28;20040;-76
2023/07/21 07:38:01;;;;;;;13.27;11.60;;;19.20;99.90;;;;;;5052152;28;20477;-75
2023/07/21 07:40:27;;;;;;;13.35;11.98;;;19.30;99.90;;;;;;5052236;28;20435;-75
2023/07/21 07:42:52;;;;;;;13.65;12.20;;;19.50;99.90;;;;;;5051989;28;20100;-76
2023/07/21 07:45:18;;;;;;;14.30;12.90;;;19.60;99.90;;;;;;5038904;28;20111;-77
2023/07/21 07:47:44;;;;;;;12.70;11.40;;;19.70;99.90;;;;;;5034540;28;20489;-77
2023/07/21 07:50:11;;;;;;;12.43;11.20;;;19.80;99.90;;;;;;5031167;28;20086;-78
2023/07/21 07:52:39;;;;;;;14.65;9.68;;;20.00;99.90;;;;;;5044832;28;20048;-77
2023/07/21 07:55:06;;;;;;;12.82;11.50;;;20.10;99.90;;;;;;5052201;28;20123;-78
2023/07/21 07:57:31;;;;;;;12.07;10.60;;;20.20;99.90;;;;;;5064927;28;20078;-78
2023/07/21 07:59:57;;;;;;;11.25;10.18;;;20.40;99.90;;;;;;5072156;28;20029;-78
2023/07/21 08:02:23;;;;;;;12.95;9.80;;;20.50;99.90;;;;;;5058835;28;20025;-78
2023/07/21 08:04:49;;;;;;;11.57;10.27;;;20.60;99.90;;;;;;5052297;28;20361;-78
2023/07/21 08:07:16;;;;;;;11.05;9.88;;;20.60;99.90;;;;;;5056457;28;20059;-78
2023/07/21 08:09:42;;;;;;;11.68;8.95;;;20.50;99.90;;;;;;5052309;28;20475;-78
2023/07/21 08:12:08;;;;;;;12.18;9.65;;;20.60;99.90;;;;;;5051459;28;20071;-78
2023/07/21 08:14:33;;;;;;;10.80;9.70;;;20.80;99.90;;;;;;5052243;28;20033;-78
2023/07/21 08:17:02;;;;;;;9.02;8.13;;;20.80;99.90;;;;;;5050654;28;20112;-77
2023/07/21 08:19:31;;;;;;;9.80;8.82;;;20.90;99.90;;;;;;5051785;28;20025;-77
2023/07/21 08:22:05;;;;;;;10.07;9.07;;;21.00;99.90;;;;;;5057756;28;20025;-77
2023/07/21 08:24:31;;;;;;;10.60;9.50;;;21.10;99.90;;;;;;5064274;28;20112;-76
2023/07/21 08:26:59;;;;;;;10.43;9.20;;;21.20;99.90;;;;;;5039968;28;20065;-77
2023/07/21 08:29:27;;;;;;;12.23;10.13;;;21.20;99.90;;;;;;5052065;28;20027;-76
2023/07/21 08:31:53;;;;;;;12.02;10.82;;;21.20;99.90;;;;;;5051910;28;20032;-76
2023/07/21 08:34:19;;;;;;;17.75;15.15;;;21.30;99.90;;;;;;5052036;28;20037;-76
2023/07/21 08:36:44;;;;;;;18.33;14.70;;;21.50;99.90;;;;;;5051744;28;20480;-77
2023/07/21 08:39:10;;;;;;;16.42;14.57;;;21.60;99.90;;;;;;5051602;28;20032;-81
2023/07/21 08:41:45;;;;;;;16.15;13.82;;;21.70;99.90;;;;;;5053976;28;20477;-83
2023/07/21 08:44:12;;;;;;;15.77;14.15;;;21.80;99.90;;;;;;5052384;28;20035;-86
2023/07/21 08:46:38;;;;;;;17.23;15.35;;;21.90;99.90;;;;;;5055673;28;20063;-81
2023/07/21 08:49:05;;;;;;;16.92;13.65;;;21.80;99.90;;;;;;5056178;28;20029;-84
2023/07/21 08:51:31;;;;;;;18.70;16.45;;;21.80;99.90;;;;;;5049771;28;20021;-79
2023/07/21 08:53:57;;;;;;;17.60;14.50;;;21.80;99.90;;;;;;5053052;28;20025;-82
2023/07/21 08:56:23;;;;;;;15.35;12.10;;;21.90;99.90;;;;;;5042062;28;20033;-80
2023/07/21 08:58:49;;;;;;;15.48;13.40;;;21.90;99.90;;;;;;5038149;28;20025;-78
2023/07/21 09:01:16;;;;;;;17.02;12.75;;;22.00;99.90;;;;;;5067141;28;20655;-76
2023/07/21 09:03:46;;;;;;;16.60;13.13;;;21.80;99.90;;;;;;5055107;28;20021;-76
2023/07/21 09:06:14;;;;;;;14.25;12.63;;;21.90;99.90;;;;;;5053487;28;20481;-76
2023/07/21 09:08:40;;;;;;;14.18;12.25;;;21.90;99.90;;;;;;5044525;28;20021;-75
2023/07/21 09:11:07;;;;;;;14.27;12.27;;;21.80;99.90;;;;;;5033453;28;20045;-75
2023/07/21 09:13:33;;;;;;;13.57;10.98;;;21.90;99.90;;;;;;5035400;28;20076;-76
2023/07/21 09:16:05;;;;;;;15.40;11.90;;;21.90;99.90;;;;;;5034867;28;20116;-76
2023/07/21 09:18:42;;;;;;;15.27;12.82;;;21.80;99.90;;;;;;5033821;28;20021;-76
2023/07/21 09:21:19;;;;;;;12.10;10.55;;;21.70;99.90;;;;;;5034882;28;20034;-76
2023/07/21 09:23:46;;;;;;;12.75;11.38;;;21.60;99.90;;;;;;5035045;28;20473;-76
2023/07/21 09:26:15;;;;;;;10.63;9.38;;;21.70;99.90;;;;;;5034155;28;20018;-75
2023/07/21 09:28:44;;;;;;;11.10;9.93;;;21.70;99.90;;;;;;5035132;28;20108;-75
2023/07/21 09:31:12;;;;;;;12.27;10.82;;;21.70;99.90;;;;;;5034890;28;20026;-75
2023/07/21 09:33:43;;;;;;;10.88;9.73;;;21.50;99.90;;;;;;5034844;28;20026;-75
2023/07/21 09:36:14;;;;;;;9.80;8.82;;;21.50;99.90;;;;;;5034956;28;20060;-75
2023/07/21 09:38:40;;;;;;;12.55;8.73;;;21.50;99.90;;;;;;5034981;28;20076;-75
2023/07/21 09:41:14;;;;;;;6.97;6.28;;;21.40;99.90;;;;;;5034410;28;20095;-75
2023/07/21 09:43:41;;;;;;;9.55;6.15;;;21.40;99.90;;;;;;5034956;28;20100;-75
2023/07/21 09:46:07;;;;;;;8.48;7.25;;;21.60;99.90;;;;;;5034684;28;20528;-75
2023/07/21 09:48:35;;;;;;;8.20;7.40;;;22.10;99.90;;;;;;5034607;28;20028;-75
2023/07/21 09:51:02;;;;;;;8.27;7.32;;;22.40;99.90;;;;;;5034148;28;20037;-76
2023/07/21 09:53:41;;;;;;;8.77;7.60;;;22.60;99.90;;;;;;5034554;28;20109;-75
2023/07/21 09:56:11;;;;;;;9.40;8.35;;;22.90;99.90;;;;;;5034559;28;20366;-76
2023/07/21 09:58:45;;;;;;;9.20;7.47;;;23.00;99.90;;;;;;5034767;28;20040;-75
2023/07/21 10:01:12;;;;;;;7.80;6.40;;;23.10;99.90;;;;;;5037491;28;20025;-75
2023/07/21 10:03:38;;;;;;;9.27;7.35;;;23.30;99.90;;;;;;5053943;28;20092;-76
2023/07/21 10:06:06;;;;;;;15.50;10.85;;;23.40;99.90;;;;;;5054076;28;20384;-76
2023/07/21 10:08:33;;;;;;;11.68;10.57;;;23.20;99.90;;;;;;5054273;28;20025;-75
2023/07/21 10:11:00;;;;;;;10.75;9.73;;;23.00;99.90;;;;;;5053881;28;20431;-75
2023/07/21 10:13:27;;;;;;;11.25;10.05;;;23.00;99.90;;;;;;5052869;28;20086;-75
2023/07/21 10:16:07;;;;;;;12.52;10.93;;;23.20;99.90;;;;;;5052537;28;20033;-75
2023/07/21 10:18:33;;;;;;;11.55;10.35;;;23.30;99.90;;;;;;5054051;28;20025;-75
2023/07/21 10:20:59;;;;;;;11.35;10.25;;;23.40;99.90;;;;;;5052768;28;20078;-76
2023/07/21 10:23:38;;;;;;;10.10;9.13;;;23.30;99.90;;;;;;5053924;28;20055;-76
2023/07/21 10:26:08;;;;;;;9.48;8.57;;;23.20;99.90;;;;;;5053925;28;20034;-75
2023/07/21 10:28:44;;;;;;;8.82;7.85;;;23.10;99.90;;;;;;5054243;28;20028;-76
2023/07/21 10:31:22;;;;;;;10.02;9.13;;;23.00;99.90;;;;;;5053625;28;20377;-76
2023/07/21 10:34:06;;;;;;;8.43;7.10;;;23.00;99.90;;;;;;5053768;28;20025;-76
2023/07/21 10:36:50;;;;;;;11.77;8.88;;;22.90;99.90;;;;;;5053657;28;20033;-75
2023/07/21 10:39:20;;;;;;;8.75;7.88;;;22.70;99.90;;;;;;5053740;28;20025;-75
2023/07/21 10:41:47;;;;;;;6.85;6.15;;;22.60;99.90;;;;;;5053141;28;20036;-77
2023/07/21 10:44:13;;;;;;;9.15;8.23;;;22.50;99.90;;;;;;5052453;28;20020;-76
2023/07/21 10:46:41;;;;;;;13.43;12.00;;;22.40;99.90;;;;;;5053546;28;20032;-75
2023/07/21 10:49:11;;;;;;;13.15;11.40;;;22.10;99.90;;;;;;5053416;28;20029;-75
2023/07/21 10:51:41;;;;;;;14.48;11.60;;;21.90;99.90;;;;;;5051904;28;20017;-75
2023/07/21 10:54:07;;;;;;;11.85;10.48;;;21.80;99.90;;;;;;5053436;28;20025;-74
2023/07/21 10:56:51;;;;;;;12.52;11.25;;;21.60;99.90;;;;;;5052421;28;20024;-74
2023/07/21 10:59:18;;;;;;;11.85;10.55;;;21.50;99.90;;;;;;5053254;28;20104;-75
2023/07/21 11:01:56;;;;;;;12.57;9.13;;;21.40;99.90;;;;;;5052321;28;20021;-73
2023/07/21 11:04:22;;;;;;;9.35;8.45;;;21.00;99.90;;;;;;5061638;28;20036;-74
2023/07/21 11:06:58;;;;;;;8.07;7.35;;;20.80;99.90;;;;;;5072344;28;20069;-74
2023/07/21 11:09:26;;;;;;;9.80;8.80;;;20.60;99.90;;;;;;5056114;28;20033;-75
2023/07/21 11:11:59;;;;;;;9.50;8.52;;;20.50;99.90;;;;;;5052429;28;20043;-73
2023/07/21 11:14:27;;;;;;;9.90;8.93;;;20.50;99.90;;;;;;5051318;28;20033;-72
2023/07/21 11:16:55;;;;;;;8.88;7.82;;;20.50;99.90;;;;;;5050259;28;20647;-73
2023/07/21 11:19:23;;;;;;;7.82;7.13;;;20.50;99.90;;;;;;5050281;28;20416;-73
2023/07/21 11:21:49;;;;;;;9.90;8.30;;;20.50;99.90;;;;;;5052226;28;20025;-72
2023/07/21 11:24:23;;;;;;;10.43;9.45;;;20.50;99.90;;;;;;5052653;28;20021;-73
2023/07/21 11:26:49;;;;;;;10.50;9.27;;;20.50;99.90;;;;;;5052236;28;20455;-73
2023/07/21 11:29:16;;;;;;;13.32;9.93;;;20.50;99.90;;;;;;5052133;28;20381;-74
2023/07/21 11:31:42;;;;;;;9.82;8.93;;;20.50;99.90;;;;;;5052512;28;20052;-74
2023/07/21 11:34:23;;;;;;;9.35;8.40;;;20.60;99.90;;;;;;5050628;28;20065;-80
2023/07/21 11:36:58;;;;;;;8.13;7.32;;;20.40;99.90;;;;;;5052036;28;20029;-79
2023/07/21 11:39:24;;;;;;;8.70;7.75;;;20.40;99.90;;;;;;5048528;28;20020;-74
2023/07/21 11:41:58;;;;;;;8.75;7.55;;;20.40;99.90;;;;;;5052244;28;20037;-74
2023/07/21 11:44:35;;;;;;;8.15;7.45;;;20.50;99.90;;;;;;5046363;28;20534;-74
2023/07/21 11:47:12;;;;;;;10.02;9.13;;;20.40;99.90;;;;;;5051508;28;20021;-73
2023/07/21 11:49:45;;;;;;;11.05;9.27;;;20.40;99.90;;;;;;5051140;28;20163;-74
2023/07/21 11:52:22;;;;;;;11.77;10.85;;;20.40;99.90;;;;;;5051680;28;20049;-74
2023/07/21 11:54:48;;;;;;;11.98;11.00;;;20.50;99.90;;;;;;5036467;28;20040;-75
2023/07/21 11:57:14;;;;;;;11.70;10.68;;;20.60;99.90;;;;;;5038270;28;20033;-77
2023/07/21 11:59:40;;;;;;;10.63;9.73;;;20.60;99.90;;;;;;5051427;28;20021;-77
2023/07/21 12:02:08;;;;;;;11.88;10.75;;;20.40;99.90;;;;;;5050751;28;20020;-77
2023/07/21 12:04:35;;;;;;;13.80;12.40;;;20.40;99.90;;;;;;5051500;28;20028;-75
2023/07/21 12:07:01;;;;;;;11.75;10.75;;;20.40;99.90;;;;;;5050287;28;20028;-75
2023/07/21 12:09:28;;;;;;;13.82;12.63;;;20.60;99.90;;;;;;5039662;28;20485;-74
2023/07/21 12:11:55;;;;;;;13.25;12.05;;;20.80;99.90;;;;;;5042404;28;20037;-74
2023/07/21 12:14:25;;;;;;;14.70;13.43;;;20.80;99.90;;;;;;5049635;28;20045;-74
2023/07/21 12:16:55;;;;;;;13.95;12.77;;;21.00;99.90;;;;;;5053485;28;20021;-74
2023/07/21 12:19:23;;;;;;;15.80;14.38;;;21.30;99.90;;;;;;5053455;28;20028;-74
2023/07/21 12:21:48;;;;;;;16.75;15.35;;;21.40;99.90;;;;;;5053724;28;20025;-75
2023/07/21 12:24:15;;;;;;;13.85;12.63;;;21.50;99.90;;;;;;5054196;28;20023;-74
2023/07/21 12:26:40;;;;;;;16.42;14.77;;;21.50;99.90;;;;;;5055990;28;20036;-75
2023/07/21 12:29:06;;;;;;;16.08;14.68;;;21.60;99.90;;;;;;5055208;28;20473;-73
2023/07/21 12:31:32;;;;;;;15.25;13.75;;;21.70;99.90;;;;;;5054201;28;20029;-73
2023/07/21 12:33:58;;;;;;;14.32;12.90;;;21.90;99.90;;;;;;5050940;28;20111;-76
2023/07/21 12:36:23;;;;;;;14.30;13.00;;;21.90;99.90;;;;;;5032570;28;20029;-77
2023/07/21 12:38:49;;;;;;;12.30;11.23;;;22.00;99.90;;;;;;5040884;28;20053;-76
2023/07/21 12:41:16;;;;;;;11.88;10.77;;;22.10;99.90;;;;;;5033916;28;20104;-78
2023/07/21 12:43:42;;;;;;;8.95;8.18;;;22.00;99.90;;;;;;5043170;28;20107;-77